Time;durP1;ratioP1;P1;durP2;ratioP2;P2;SDS_P1;SDS_P2;PMS_P1;PMS_P2;Temp;Humidity;BMP_temperature;BMP_pressure;BME280_temperature;BME280_humidity;BME280_pressure;Samples;Min_cycle;Max_cycle;Signal;HPM_P1;HPM_P2
2021/08/27 00:00:25;;;;;;;0.77;0.57;;;;;;;14.36;87.58;101108.78;6224532;28;20046;-77
2021/08/27 00:03:27;;;;;;;1.10;0.57;;;;;;;14.27;88.62;101100.59;6224233;28;20093;-75
2021/08/27 00:06:28;;;;;;;1.25;0.77;;;;;;;14.38;86.83;101096.28;6224433;28;20057;-77
2021/08/27 00:09:29;;;;;;;2.22;0.98;;;;;;;14.27;88.82;101088.22;6224170;28;20042;-75
2021/08/27 00:12:31;;;;;;;1.52;0.50;;;;;;;14.25;88.25;101087.44;6224171;28;20058;-75
2021/08/27 00:15:33;;;;;;;1.95;0.65;;;;;;;14.26;88.45;101093.56;6224118;28;20050;-77
2021/08/27 00:18:35;;;;;;;2.10;0.65;;;;;;;14.20;88.46;101090.38;6224153;28;20057;-74
2021/08/27 00:21:36;;;;;;;1.55;0.73;;;;;;;14.28;88.48;101087.25;6224138;28;20054;-76
2021/08/27 00:24:38;;;;;;;0.88;0.50;;;;;;;14.23;88.84;101085.84;6223543;28;20424;-77
2021/08/27 00:27:39;;;;;;;2.20;1.50;;;;;;;14.19;90.60;101086.03;6223687;28;20049;-75
2021/08/27 00:30:41;;;;;;;0.35;0.35;;;;;;;14.24;90.92;101087.53;6223591;28;20436;-74
2021/08/27 00:33:43;;;;;;;0.77;0.65;;;;;;;14.26;90.14;101097.09;6223398;28;20419;-75
2021/08/27 00:36:44;;;;;;;0.98;0.60;;;;;;;14.19;90.92;101095.75;6223724;28;20054;-74
2021/08/27 00:39:45;;;;;;;2.50;0.80;;;;;;;14.25;90.55;101097.16;6223297;28;20143;-74
2021/08/27 00:42:47;;;;;;;0.40;0.32;;;;;;;14.21;89.82;101099.16;6223913;28;20057;-76
2021/08/27 00:45:50;;;;;;;1.40;0.55;;;;;;;14.08;90.62;101104.38;6223110;28;20050;-74
2021/08/27 00:48:51;;;;;;;0.73;0.57;;;;;;;14.16;90.83;101099.44;6223384;28;20042;-74
2021/08/27 00:51:52;;;;;;;1.98;1.00;;;;;;;14.02;91.79;101094.16;6223186;28;20053;-75
2021/08/27 00:54:54;;;;;;;0.32;0.32;;;;;;;14.18;90.43;101096.72;6222913;28;20505;-75
2021/08/27 00:57:56;;;;;;;0.52;0.40;;;;;;;13.99;91.10;101101.44;6223388;28;20049;-77
2021/08/27 01:00:59;;;;;;;1.33;0.50;;;;;;;13.88;91.92;101100.31;6223082;28;20087;-75
2021/08/27 01:04:01;;;;;;;0.95;0.50;;;;;;;13.88;92.42;101100.31;6222283;28;20058;-75
2021/08/27 01:07:07;;;;;;;2.00;0.73;;;;;;;13.81;92.44;101096.34;6222901;28;20064;-74
2021/08/27 01:10:14;;;;;;;0.80;0.60;;;;;;;13.82;93.00;101098.06;6222937;28;20046;-77
2021/08/27 01:13:20;;;;;;;2.38;0.57;;;;;;;13.69;93.13;101090.03;6222745;28;20054;-75
2021/08/27 01:16:29;;;;;;;3.67;0.68;;;;;;;13.75;93.60;101091.44;6222876;28;20053;-75
2021/08/27 01:20:06;;;;;;;3.65;0.50;;;;;;;13.81;92.74;101090.22;6222660;28;20046;-77
2021/08/27 01:23:18;;;;;;;1.55;0.73;;;;;;;13.69;93.08;101082.09;6206972;28;20136;-77
2021/08/27 01:26:24;;;;;;;0.75;0.50;;;;;;;13.68;92.83;101088.31;6222656;28;20065;-75
2021/08/27 01:29:35;;;;;;;1.48;0.60;;;;;;;13.56;94.55;101096.97;6251701;22;20047;-77
2021/08/27 01:32:44;;;;;;;0.57;0.50;;;;;;;13.54;94.67;101093.59;6257665;28;20044;-77
2021/08/27 01:35:50;;;;;;;0.57;0.50;;;;;;;13.60;94.29;101095.00;6269119;28;20053;-77
2021/08/27 01:38:52;;;;;;;1.52;0.57;;;;;;;13.58;94.06;101084.56;6261504;28;20486;-77
2021/08/27 01:41:56;;;;;;;1.58;0.50;;;;;;;13.49;94.61;101093.03;6262105;28;20389;-77
2021/08/27 01:44:59;;;;;;;1.20;0.80;;;;;;;13.42;95.51;101091.69;6265468;28;20081;-77
2021/08/27 01:48:04;;;;;;;0.95;0.55;;;;;;;13.49;94.17;101087.75;6247391;28;20053;-78
2021/08/27 01:51:10;;;;;;;1.20;0.55;;;;;;;13.46;94.10;101085.28;6247372;28;20068;-77
2021/08/27 01:54:12;;;;;;;0.73;0.35;;;;;;;13.38;95.74;101080.44;6247514;28;20045;-77
2021/08/27 01:57:14;;;;;;;0.98;0.50;;;;;;;13.43;95.14;101083.66;6252726;28;20045;-76
2021/08/27 02:00:17;;;;;;;0.98;0.30;;;;;;;13.44;95.46;101092.44;6246776;28;20053;-77
2021/08/27 02:03:20;;;;;;;0.85;0.60;;;;;;;13.39;95.93;101086.56;6246648;28;20049;-77
2021/08/27 02:06:23;;;;;;;1.02;0.43;;;;;;;13.33;95.24;101079.03;6246773;28;20052;-77
2021/08/27 02:09:25;;;;;;;1.38;0.68;;;;;;;13.28;95.35;101084.59;6246486;28;20041;-77
2021/08/27 02:12:27;;;;;;;0.50;0.50;;;;;;;13.39;96.02;101086.56;6246463;28;20418;-77
2021/08/27 02:15:29;;;;;;;1.67;0.40;;;;;;;13.26;95.38;101086.44;6251084;28;20053;-77
2021/08/27 02:18:30;;;;;;;0.88;0.52;;;;;;;13.23;96.00;101083.16;6251583;28;20041;-77
2021/08/27 02:21:40;;;;;;;4.03;0.45;;;;;;;13.23;96.49;101083.16;6251265;28;20053;-77
2021/08/27 02:24:45;;;;;;;0.70;0.50;;;;;;;13.23;96.93;101088.44;6251331;28;20163;-78
2021/08/27 02:27:47;;;;;;;1.20;0.60;;;;;;;13.18;96.67;101080.75;6251424;28;20061;-78
2021/08/27 02:30:49;;;;;;;0.90;0.60;;;;;;;13.19;96.08;101091.22;6251151;28;20049;-77
2021/08/27 02:33:52;;;;;;;0.55;0.55;;;;;;;13.27;94.74;101082.91;6251125;28;20401;-76
2021/08/27 02:36:57;;;;;;;1.25;0.40;;;;;;;13.16;96.30;101094.03;6251060;28;20459;-77
2021/08/27 02:39:59;;;;;;;1.67;0.63;;;;;;;13.12;96.69;101089.88;6251226;28;20056;-76
2021/08/27 02:43:00;;;;;;;2.47;0.93;;;;;;;13.05;97.16;101090.34;6251095;28;20059;-76
2021/08/27 02:46:01;;;;;;;0.73;0.30;;;;;;;12.99;97.12;101099.47;6250697;28;20519;-76
2021/08/27 02:49:03;;;;;;;0.77;0.60;;;;;;;13.01;97.03;101092.28;6250759;28;20041;-77
2021/08/27 02:52:12;;;;;;;1.98;0.73;;;;;;;13.02;97.14;101094.00;6250705;28;20053;-77
2021/08/27 02:55:18;;;;;;;0.47;0.47;;;;;;;13.00;97.49;101087.13;6250630;28;20060;-76
2021/08/27 02:58:24;;;;;;;2.10;0.73;;;;;;;13.04;97.56;101086.84;6250974;28;20053;-77
2021/08/27 03:01:36;;;;;;;3.92;0.50;;;;;;;13.02;97.39;101087.88;6250579;28;20056;-76
2021/08/27 03:04:46;;;;;;;0.73;0.50;;;;;;;13.00;98.49;101093.25;6250467;28;20068;-75
2021/08/27 03:07:57;;;;;;;1.52;0.55;;;;;;;13.03;98.62;101084.28;6250774;28;20060;-77
2021/08/27 03:11:04;;;;;;;1.20;0.52;;;;;;;13.11;97.84;101085.53;6250786;28;20057;-77
2021/08/27 03:14:10;;;;;;;1.05;0.60;;;;;;;13.08;98.53;101087.50;6250758;28;20515;-75
2021/08/27 03:17:16;;;;;;;1.27;0.65;;;;;;;13.09;97.51;101087.44;6236284;28;20050;-76
2021/08/27 03:20:21;;;;;;;1.33;0.60;;;;;;;13.12;97.42;101089.88;6236435;28;20124;-76
2021/08/27 03:23:25;;;;;;;0.68;0.40;;;;;;;13.10;97.83;101085.63;6241949;28;20056;-76
2021/08/27 03:26:30;;;;;;;1.15;0.57;;;;;;;13.06;97.79;101090.22;6237742;28;20046;-77
2021/08/27 03:29:37;;;;;;;1.27;0.63;;;;;;;13.12;97.46;101083.75;6238012;28;20072;-76
2021/08/27 03:32:39;;;;;;;3.80;0.85;;;;;;;13.01;98.20;101075.63;6247442;28;20049;-76
2021/08/27 03:35:41;;;;;;;0.70;0.70;;;;;;;12.91;98.90;101080.59;6237006;28;20425;-76
2021/08/27 03:38:44;;;;;;;0.63;0.63;;;;;;;13.00;99.31;101074.78;6231389;28;20053;-76
2021/08/27 03:41:45;;;;;;;3.28;1.65;;;;;;;12.90;99.33;101082.38;6233030;28;20057;-75
2021/08/27 03:44:48;;;;;;;1.67;0.70;;;;;;;12.92;98.86;101082.28;6225028;28;20049;-76
2021/08/27 03:47:50;;;;;;;2.22;0.73;;;;;;;12.91;99.94;101077.94;6225486;28;20053;-76
2021/08/27 03:50:54;;;;;;;0.70;0.60;;;;;;;13.06;99.09;101070.91;6224593;28;20042;-77
2021/08/27 03:53:57;;;;;;;3.78;1.27;;;;;;;12.91;100.00;101067.41;6224626;28;20526;-77
2021/08/27 03:57:02;;;;;;;0.73;0.55;;;;;;;12.94;100.00;101067.19;6224601;28;20049;-76
2021/08/27 04:00:05;;;;;;;1.70;0.70;;;;;;;13.01;100.00;101052.72;6224357;28;20156;-76
2021/08/27 04:03:07;;;;;;;1.40;0.63;;;;;;;13.02;100.00;101059.69;6224885;28;20482;-76
2021/08/27 04:06:10;;;;;;;0.70;0.70;;;;;;;13.03;99.76;101056.09;6224251;28;20057;-77
2021/08/27 04:09:12;;;;;;;1.10;0.65;;;;;;;12.99;100.00;101061.66;6224299;28;20456;-76
2021/08/27 04:12:14;;;;;;;1.80;0.80;;;;;;;12.94;100.00;101064.56;6224345;28;20524;-79
2021/08/27 04:15:18;;;;;;;3.38;0.93;;;;;;;12.94;100.00;101056.63;6224273;28;20054;-79
2021/08/27 04:18:19;;;;;;;1.02;0.60;;;;;;;12.99;100.00;101056.38;6224452;28;20058;-77
2021/08/27 04:21:21;;;;;;;0.93;0.77;;;;;;;12.92;100.00;101050.63;6224356;28;20072;-79
2021/08/27 04:24:25;;;;;;;1.52;0.77;;;;;;;12.98;100.00;101052.03;6224193;28;20058;-79
2021/08/27 04:27:26;;;;;;;2.72;1.85;;;;;;;12.95;100.00;101051.31;6224491;28;20049;-77
2021/08/27 04:30:27;;;;;;;0.40;0.40;;;;;;;12.90;100.00;101044.59;6223811;28;20045;-75
2021/08/27 04:33:29;;;;;;;4.15;1.05;;;;;;;12.89;100.00;101046.34;6223857;28;20053;-77
2021/08/27 04:36:30;;;;;;;5.45;0.52;;;;;;;13.06;100.00;101049.81;6223251;28;20486;-78
2021/08/27 04:39:33;;;;;;;6.00;1.45;;;;;;;12.98;100.00;101055.53;6223751;28;20049;-77
2021/08/27 04:42:34;;;;;;;0.77;0.57;;;;;;;12.99;100.00;101057.25;6224183;28;20061;-77
2021/08/27 04:45:35;;;;;;;2.25;1.02;;;;;;;12.98;100.00;101055.53;6223623;28;20049;-77
2021/08/27 04:48:37;;;;;;;1.23;0.52;;;;;;;13.04;100.00;101046.44;6223952;28;20045;-78
2021/08/27 04:51:38;;;;;;;2.25;0.63;;;;;;;13.03;100.00;101050.81;6223646;28;20053;-77
2021/08/27 04:54:41;;;;;;;0.40;0.40;;;;;;;13.02;100.00;101050.94;6223650;28;20493;-77
2021/08/27 04:57:42;;;;;;;2.30;0.47;;;;;;;12.99;100.00;101059.00;6223591;28;20050;-76
2021/08/27 05:00:44;;;;;;;1.27;0.85;;;;;;;13.03;100.00;101063.16;6223681;28;20046;-77
2021/08/27 05:03:45;;;;;;;0.85;0.60;;;;;;;13.02;100.00;101054.41;6223485;28;20057;-77
2021/08/27 05:06:46;;;;;;;1.73;0.80;;;;;;;13.02;100.00;101053.56;6223583;28;20421;-77
2021/08/27 05:09:49;;;;;;;1.42;0.55;;;;;;;13.06;100.00;101060.38;6223655;28;20045;-77
2021/08/27 05:12:50;;;;;;;2.83;0.77;;;;;;;13.11;100.00;101051.22;6223272;28;20421;-78
2021/08/27 05:15:52;;;;;;;1.98;1.00;;;;;;;13.10;100.00;101056.63;6223159;28;20050;-77
2021/08/27 05:18:53;;;;;;;3.83;0.65;;;;;;;13.10;100.00;101057.47;6223090;28;20056;-78
2021/08/27 05:21:55;;;;;;;1.92;0.70;;;;;;;13.17;100.00;101047.38;6223320;28;20042;-77
2021/08/27 05:24:58;;;;;;;0.80;0.52;;;;;;;13.20;100.00;101050.69;6223139;28;20053;-77
2021/08/27 05:27:59;;;;;;;1.98;0.98;;;;;;;13.30;100.00;101055.44;6223365;28;20057;-76
2021/08/27 05:31:01;;;;;;;0.77;0.60;;;;;;;13.27;100.00;101053.00;6223296;28;20057;-78
2021/08/27 05:34:06;;;;;;;1.73;0.80;;;;;;;13.27;100.00;101050.38;6222869;28;20069;-78
2021/08/27 05:37:07;;;;;;;2.72;0.90;;;;;;;13.30;100.00;101064.22;6223104;28;20188;-77
2021/08/27 05:40:11;;;;;;;1.17;0.60;;;;;;;13.30;100.00;101056.28;6223122;28;20068;-78
2021/08/27 05:43:12;;;;;;;3.20;1.70;;;;;;;13.33;100.00;101064.03;6223231;28;20050;-78
2021/08/27 05:46:14;;;;;;;3.22;0.70;;;;;;;13.34;100.00;101065.72;6222665;28;20056;-77
2021/08/27 05:49:16;;;;;;;0.93;0.70;;;;;;;13.47;100.00;101078.22;6223250;28;20054;-78
2021/08/27 05:52:17;;;;;;;0.68;0.60;;;;;;;13.40;100.00;101072.47;6223156;28;20058;-79
2021/08/27 05:55:20;;;;;;;1.00;0.90;;;;;;;13.40;100.00;101075.09;6223320;28;20054;-78
2021/08/27 05:58:22;;;;;;;0.68;0.55;;;;;;;13.43;100.00;101072.25;6223564;28;20050;-77
2021/08/27 06:01:23;;;;;;;1.23;0.82;;;;;;;13.57;100.00;101072.25;6223156;28;20057;-78
2021/08/27 06:04:25;;;;;;;0.57;0.50;;;;;;;13.49;100.00;101073.66;6223001;28;20057;-77
2021/08/27 06:07:26;;;;;;;1.10;0.32;;;;;;;13.45;100.00;101070.38;6222854;28;20061;-77
2021/08/27 06:10:29;;;;;;;0.70;0.43;;;;;;;13.43;100.00;101062.53;6222810;28;20053;-78
2021/08/27 06:13:31;;;;;;;1.88;1.00;;;;;;;13.52;100.00;101062.94;6222604;28;20608;-78
2021/08/27 06:16:33;;;;;;;1.55;0.70;;;;;;;13.44;100.00;101056.34;6223483;28;20045;-76
2021/08/27 06:19:35;;;;;;;1.02;0.68;;;;;;;13.44;100.00;101066.03;6226579;28;20049;-78
2021/08/27 06:22:37;;;;;;;0.55;0.55;;;;;;;13.54;100.00;101058.44;6231782;28;20061;-78
2021/08/27 06:25:40;;;;;;;1.15;0.90;;;;;;;13.55;100.00;101049.56;6232603;28;20428;-77
2021/08/27 06:28:41;;;;;;;1.77;0.80;;;;;;;13.66;100.00;101057.66;6232752;28;20045;-77
2021/08/27 06:31:43;;;;;;;2.63;0.85;;;;;;;13.67;100.00;101047.03;6222759;28;20046;-79
2021/08/27 06:34:45;;;;;;;0.52;0.32;;;;;;;13.72;100.00;101044.09;6222772;28;20062;-79
2021/08/27 06:41:08;;;;;;;0.80;0.38;;;;;;;13.83;100.00;101060.13;6223196;28;20046;-78
2021/08/27 06:44:10;;;;;;;1.08;0.70;;;;;;;13.86;100.00;101061.72;6222549;28;20421;-77
2021/08/27 06:47:11;;;;;;;0.95;0.65;;;;;;;13.85;100.00;101063.53;6222429;28;20046;-78
2021/08/27 06:50:12;;;;;;;1.00;0.77;;;;;;;13.73;100.00;101059.00;6222390;28;20050;-77
2021/08/27 06:53:14;;;;;;;0.93;0.50;;;;;;;13.61;100.00;101060.56;6222417;28;20046;-78
2021/08/27 06:56:17;;;;;;;2.10;0.73;;;;;;;13.65;100.00;101055.97;6222698;28;20058;-79
2021/08/27 06:59:18;;;;;;;0.50;0.45;;;;;;;13.65;100.00;101062.09;6222251;28;20050;-77
2021/08/27 07:02:19;;;;;;;1.17;0.80;;;;;;;13.62;100.00;101058.78;6226404;28;20046;-79
2021/08/27 07:05:21;;;;;;;5.60;0.73;;;;;;;13.61;100.00;101049.16;6226309;28;20057;-78
2021/08/27 07:08:22;;;;;;;1.27;0.70;;;;;;;13.55;100.00;101057.47;6232720;28;20041;-77
2021/08/27 07:11:25;;;;;;;0.70;0.57;;;;;;;13.65;100.00;101062.09;6252154;28;20037;-78
2021/08/27 07:14:26;;;;;;;2.40;0.63;;;;;;;13.65;100.00;101050.69;6263884;28;20403;-78
2021/08/27 07:17:28;;;;;;;0.75;0.70;;;;;;;13.60;100.00;101048.31;6275815;28;20048;-78
2021/08/27 07:20:30;;;;;;;2.40;0.55;;;;;;;13.70;100.00;101051.25;6275707;28;20049;-79
2021/08/27 07:23:31;;;;;;;0.77;0.40;;;;;;;13.67;100.00;101048.78;6264705;28;20049;-78
2021/08/27 07:26:34;;;;;;;1.05;0.85;;;;;;;13.79;100.00;101052.47;6253898;28;20060;-78
2021/08/27 07:29:35;;;;;;;4.28;0.68;;;;;;;13.76;100.00;101050.00;6234557;28;20042;-77
2021/08/27 07:32:37;;;;;;;3.60;0.90;;;;;;;13.80;100.00;101041.81;6239926;28;20186;-78
2021/08/27 07:35:39;;;;;;;0.82;0.50;;;;;;;13.95;100.00;101038.22;6251088;28;20049;-78
2021/08/27 07:38:40;;;;;;;0.73;0.50;;;;;;;13.88;100.00;101028.97;6236764;28;20046;-76
2021/08/27 07:41:43;;;;;;;1.83;0.68;;;;;;;13.99;100.00;101041.53;6245176;28;20045;-77
2021/08/27 07:44:44;;;;;;;0.38;0.38;;;;;;;13.99;100.00;101051.22;6265828;23;20065;-77
2021/08/27 07:47:46;;;;;;;1.13;0.60;;;;;;;13.97;100.00;101046.03;6233409;28;20077;-77
2021/08/27 07:50:47;;;;;;;7.43;1.00;;;;;;;13.96;100.00;101047.00;6234593;28;20507;-76
2021/08/27 07:53:49;;;;;;;3.92;0.68;;;;;;;13.84;100.00;101047.75;6238908;28;20049;-77
2021/08/27 07:56:52;;;;;;;2.38;0.68;;;;;;;13.81;100.00;101047.97;6224700;28;20053;-77
2021/08/27 07:59:53;;;;;;;0.98;0.60;;;;;;;13.86;100.00;101049.38;6221239;28;20046;-77
2021/08/27 08:02:54;;;;;;;1.13;0.75;;;;;;;13.77;100.00;101049.94;6224287;28;20049;-76
2021/08/27 08:05:56;;;;;;;3.03;0.75;;;;;;;13.83;100.00;101052.19;6222888;28;20053;-77
2021/08/27 08:08:57;;;;;;;3.03;0.98;;;;;;;13.78;100.00;101051.63;6223156;28;20046;-77
2021/08/27 08:12:00;;;;;;;0.70;0.52;;;;;;;13.81;100.00;101055.88;6222901;28;20057;-77
2021/08/27 08:15:01;;;;;;;4.78;0.80;;;;;;;13.86;100.00;101057.28;6218087;28;20058;-77
2021/08/27 08:18:03;;;;;;;1.42;0.93;;;;;;;13.73;100.00;101061.63;6216796;28;20413;-77
2021/08/27 08:21:05;;;;;;;1.42;0.65;;;;;;;13.72;100.00;101062.59;6221343;28;20049;-77
2021/08/27 08:24:06;;;;;;;0.73;0.65;;;;;;;13.66;100.00;101066.44;6223664;28;20057;-75
2021/08/27 08:27:09;;;;;;;1.48;0.65;;;;;;;13.65;100.00;101069.16;6224056;28;20061;-77
2021/08/27 08:30:11;;;;;;;1.15;1.00;;;;;;;13.64;100.00;101073.59;6216586;28;20047;-77
2021/08/27 08:33:13;;;;;;;1.23;0.60;;;;;;;13.63;100.00;101071.91;6185690;28;20521;-77
2021/08/27 08:36:15;;;;;;;2.28;0.80;;;;;;;13.62;100.00;101077.28;6185411;28;20521;-78
2021/08/27 08:39:16;;;;;;;1.23;0.80;;;;;;;13.62;100.00;101070.19;6185893;28;20050;-78
2021/08/27 08:42:21;;;;;;;1.27;0.75;;;;;;;13.80;100.00;101078.78;6188668;28;20046;-80
2021/08/27 08:45:23;;;;;;;0.60;0.50;;;;;;;13.78;100.00;101077.19;6188144;28;20062;-78
2021/08/27 08:48:26;;;;;;;0.40;0.40;;;;;;;13.73;100.00;101082.75;6187079;28;20393;-78
2021/08/27 08:51:29;;;;;;;3.40;0.50;;;;;;;13.88;100.00;101070.41;6185691;28;20049;-78
2021/08/27 08:54:32;;;;;;;1.27;0.63;;;;;;;13.86;100.00;101067.03;6186327;28;20061;-77
2021/08/27 08:57:34;;;;;;;4.13;0.52;;;;;;;14.05;100.00;101079.94;6185450;28;20050;-77
2021/08/27 09:00:38;;;;;;;2.05;0.68;;;;;;;14.04;100.00;101070.31;6198833;28;20050;-77
2021/08/27 09:03:40;;;;;;;0.77;0.60;;;;;;;14.07;100.00;101076.22;6198773;28;20058;-77
2021/08/27 09:06:41;;;;;;;3.95;0.60;;;;;;;14.16;100.00;101080.09;6198589;28;20050;-77
2021/08/27 09:09:44;;;;;;;1.58;0.80;;;;;;;14.10;100.00;101072.56;6199029;28;20061;-77
2021/08/27 09:12:47;;;;;;;0.60;0.60;;;;;;;14.10;100.00;101077.84;6198610;28;20504;-77
2021/08/27 09:16:03;;;;;;;0.50;0.50;;;;;;;14.23;100.00;101078.78;6198431;28;20057;-77
2021/08/27 09:19:04;;;;;;;1.52;0.60;;;;;;;14.32;100.00;101083.47;6198552;28;20051;-77
2021/08/27 09:22:06;;;;;;;1.42;0.60;;;;;;;14.36;100.00;101089.41;6198592;28;20639;-75
2021/08/27 09:25:09;;;;;;;0.68;0.65;;;;;;;14.40;100.00;101085.63;6197354;28;20061;-75
2021/08/27 09:28:13;;;;;;;0.60;0.50;;;;;;;14.44;100.00;101081.81;6198549;28;20050;-77
2021/08/27 09:31:14;;;;;;;2.22;0.70;;;;;;;14.41;100.00;101089.97;6198249;28;20043;-76
2021/08/27 09:34:16;;;;;;;1.40;0.70;;;;;;;14.34;100.00;101089.50;6198332;28;20054;-76
2021/08/27 09:37:17;;;;;;;4.03;0.90;;;;;;;14.44;100.00;101097.69;6198226;28;20058;-78
2021/08/27 09:40:20;;;;;;;2.05;0.70;;;;;;;14.34;100.00;101099.22;6203091;28;20409;-76
2021/08/27 09:43:26;;;;;;;3.22;0.70;;;;;;;14.40;100.00;101106.78;6202365;28;20056;-77
2021/08/27 09:46:32;;;;;;;0.40;0.40;;;;;;;14.33;100.00;101100.19;6207443;28;20452;-76
2021/08/27 09:49:36;;;;;;;3.20;0.82;;;;;;;14.32;100.00;101107.28;6211874;28;20046;-77
2021/08/27 09:52:38;;;;;;;2.10;0.70;;;;;;;14.38;100.00;101101.59;6198883;28;20133;-76
2021/08/27 09:55:53;;;;;;;0.82;0.52;;;;;;;14.34;100.00;101107.16;6202994;28;20053;-76
2021/08/27 09:58:56;;;;;;;1.27;0.80;;;;;;;14.25;100.00;101105.09;6200308;28;20548;-76
2021/08/27 10:01:58;;;;;;;1.08;0.60;;;;;;;14.16;100.00;101111.81;6220275;28;20045;-77
2021/08/27 10:05:02;;;;;;;0.77;0.57;;;;;;;14.02;100.00;101110.03;6182901;28;20062;-76
2021/08/27 10:08:13;;;;;;;0.70;0.70;;;;;;;13.96;100.00;101105.97;6184339;28;20189;-79
2021/08/27 10:11:17;;;;;;;3.10;0.88;;;;;;;13.88;100.00;101110.03;6201217;28;20046;-77
2021/08/27 10:14:19;;;;;;;1.40;0.88;;;;;;;13.91;100.00;101113.34;6215078;28;20137;-79
2021/08/27 10:17:21;;;;;;;3.20;0.90;;;;;;;13.83;100.00;101114.75;6213945;28;20065;-78
2021/08/27 10:20:23;;;;;;;1.20;1.10;;;;;;;13.98;100.00;101110.31;6211975;28;20582;-78
2021/08/27 10:23:24;;;;;;;2.13;0.73;;;;;;;14.00;100.00;101121.66;6217689;28;20042;-79
2021/08/27 10:26:27;;;;;;;1.88;1.15;;;;;;;14.12;100.00;101110.28;6219223;28;20053;-78
2021/08/27 10:29:30;;;;;;;1.55;0.98;;;;;;;14.05;100.00;101116.94;6222115;28;20058;-78
2021/08/27 10:32:48;;;;;;;2.38;1.02;;;;;;;14.09;100.00;101116.63;6222076;28;20073;-78
2021/08/27 10:35:53;;;;;;;1.48;1.15;;;;;;;14.09;100.00;101115.78;6215252;28;20521;-78
2021/08/27 10:38:56;;;;;;;2.53;1.50;;;;;;;14.03;100.00;101111.72;6226202;28;20046;-78
2021/08/27 10:41:58;;;;;;;2.05;1.10;;;;;;;14.00;100.00;101111.06;6216506;28;20045;-78
2021/08/27 10:45:00;;;;;;;3.00;0.93;;;;;;;14.04;100.00;101115.22;6210591;28;20054;-78
2021/08/27 10:48:10;;;;;;;2.38;0.88;;;;;;;14.06;100.00;101119.47;6226716;28;20045;-79
2021/08/27 10:51:29;;;;;;;;;;;;;;;13.96;100.00;101110.41;6217498;28;20085;-76
2021/08/27 10:55:06;;;;;;;1.10;0.75;;;;;;;14.10;100.00;101114.84;6221497;28;20289;-78
2021/08/27 10:58:13;;;;;;;0.80;0.80;;;;;;;14.06;100.00;101121.25;6216573;28;20053;-78
2021/08/27 11:01:33;;;;;;;0.90;0.75;;;;;;;14.18;100.00;101117.88;6226532;28;20555;-78
2021/08/27 11:04:42;;;;;;;0.80;0.80;;;;;;;14.28;100.00;101113.69;6226142;28;20389;-77
2021/08/27 11:07:43;;;;;;;2.30;1.23;;;;;;;14.60;100.00;101119.59;6223567;28;20123;-78
2021/08/27 11:11:05;;;;;;;0.93;0.90;;;;;;;14.57;100.00;101113.66;6226509;28;20497;-78
2021/08/27 11:14:21;;;;;;;1.30;1.02;;;;;;;14.62;100.00;101107.13;6226343;28;20072;-78
2021/08/27 11:17:24;;;;;;;0.90;0.75;;;;;;;14.55;100.00;101110.28;6225837;28;20501;-75
2021/08/27 11:20:29;;;;;;;2.13;1.30;;;;;;;14.79;100.00;101100.75;6225435;28;20057;-76
2021/08/27 11:23:52;;;;;;;2.25;1.15;;;;;;;15.12;100.00;101096.81;6221157;28;20169;-77
2021/08/27 11:27:01;;;;;;;2.17;1.33;;;;;;;15.29;100.00;101099.19;6225210;28;20057;-78
2021/08/27 11:30:30;;;;;;;2.38;1.40;;;;;;;15.34;100.00;101101.53;6226585;28;20057;-79
2021/08/27 11:33:51;;;;;;;4.97;1.55;;;;;;;15.06;100.00;101098.06;6208284;28;20042;-78
2021/08/27 11:36:53;;;;;;;1.58;1.02;;;;;;;14.85;100.00;101105.66;6225390;28;20050;-78
2021/08/27 11:39:54;;;;;;;2.15;1.13;;;;;;;14.69;100.00;101095.22;6225179;28;20413;-78
2021/08/27 11:42:56;;;;;;;1.88;1.20;;;;;;;14.57;100.00;101090.69;6225870;28;20494;-78
2021/08/27 11:45:59;;;;;;;3.67;1.85;;;;;;;14.48;100.00;101099.22;6224356;28;20543;-78
2021/08/27 11:49:23;;;;;;;3.22;1.58;;;;;;;14.42;100.00;101100.44;6225269;28;20060;-78
2021/08/27 11:52:28;;;;;;;1.92;1.20;;;;;;;14.27;100.00;101103.22;6225289;28;20470;-78
2021/08/27 11:55:30;;;;;;;2.47;1.35;;;;;;;14.33;100.00;101116.88;6224603;28;20068;-78
2021/08/27 11:58:42;;;;;;;2.45;1.52;;;;;;;14.30;100.00;101109.13;6207813;28;20055;-81
2021/08/27 12:01:44;;;;;;;2.60;1.30;;;;;;;14.24;100.00;101106.91;6183317;28;20410;-81
2021/08/27 12:04:55;;;;;;;2.72;1.90;;;;;;;14.33;100.00;101111.59;6200106;28;20057;-78
2021/08/27 12:07:58;;;;;;;1.40;1.23;;;;;;;14.33;100.00;101114.25;6183142;28;20051;-74
2021/08/27 12:10:59;;;;;;;2.55;1.10;;;;;;;14.26;100.00;101120.00;6176240;28;20054;-81
2021/08/27 12:14:01;;;;;;;2.83;1.15;;;;;;;14.21;100.00;101118.50;6176611;28;20054;-81
2021/08/27 12:17:02;;;;;;;3.55;1.10;;;;;;;14.32;100.00;101115.19;6177381;28;20057;-78
2021/08/27 12:20:07;;;;;;;4.25;1.33;;;;;;;14.33;100.00;101113.41;6175920;28;20055;-78
2021/08/27 12:23:12;;;;;;;1.13;1.02;;;;;;;14.50;100.00;101110.56;6177351;28;20051;-78
2021/08/27 12:26:21;;;;;;;2.08;1.20;;;;;;;14.68;100.00;101111.19;6198834;28;20054;-78
2021/08/27 12:29:23;;;;;;;;;;;;;;;15.21;100.00;101106.78;6201292;28;20057;-78
2021/08/27 12:32:24;;;;;;;2.63;1.48;;;;;;;15.89;100.00;101109.19;6195929;28;19930;-77
2021/08/27 12:35:31;;;;;;;2.90;1.70;;;;;;;16.21;100.00;101112.25;6176982;28;20050;-79
2021/08/27 12:38:33;;;;;;;3.30;1.50;;;;;;;16.24;100.00;101114.69;6178542;28;20054;-79
2021/08/27 12:41:37;;;;;;;2.50;1.45;;;;;;;15.88;100.00;101110.16;6178343;28;20046;-79
2021/08/27 12:44:55;;;;;;;2.55;1.38;;;;;;;15.36;100.00;101113.72;6191069;28;20045;-78
2021/08/27 12:48:04;;;;;;;1.60;1.10;;;;;;;15.13;100.00;101119.72;6223407;28;20046;-79
2021/08/27 12:51:11;;;;;;;2.33;1.52;;;;;;;15.23;100.00;101113.69;6212580;28;20045;-79
2021/08/27 12:54:14;;;;;;;2.17;1.52;;;;;;;15.38;100.00;101105.66;6224996;28;20132;-79
2021/08/27 12:57:16;;;;;;;2.78;1.30;;;;;;;15.65;100.00;101105.63;6223840;28;20053;-78
2021/08/27 13:00:21;;;;;;;1.63;1.45;;;;;;;16.06;100.00;101107.19;6215193;28;20053;-76
2021/08/27 13:03:22;;;;;;;1.55;1.15;;;;;;;16.07;100.00;101107.06;6209801;28;20123;-77
2021/08/27 13:06:33;;;;;;;0.85;0.82;;;;;;;15.80;100.00;101101.88;6222389;28;20046;-76
2021/08/27 13:09:34;;;;;;;1.23;1.02;;;;;;;15.66;100.00;101110.78;6221524;28;20056;-78
2021/08/27 13:12:36;;;;;;;2.25;1.15;;;;;;;15.72;100.00;101113.03;6220808;28;20049;-78
2021/08/27 13:15:38;;;;;;;1.65;1.02;;;;;;;15.69;100.00;101102.66;6222862;28;20053;-77
2021/08/27 13:18:46;;;;;;;1.20;1.10;;;;;;;15.88;100.00;101104.88;6216214;28;20515;-77
2021/08/27 13:21:49;;;;;;;2.67;1.33;;;;;;;16.11;100.00;101110.34;6223552;28;20057;-78
2021/08/27 13:24:55;;;;;;;0.88;0.80;;;;;;;16.74;100.00;101112.00;6223394;28;20128;-78
2021/08/27 13:27:57;;;;;;;0.70;0.70;;;;;;;16.65;100.00;101117.97;6223967;28;20050;-78
2021/08/27 13:30:59;;;;;;;3.47;1.10;;;;;;;16.42;100.00;101112.50;6223375;28;20050;-77
2021/08/27 13:34:01;;;;;;;0.57;0.57;;;;;;;16.25;100.00;101123.47;6219219;28;20429;-77
2021/08/27 13:37:04;;;;;;;1.40;0.70;;;;;;;15.78;100.00;101119.72;6222686;28;20084;-76
2021/08/27 13:40:08;;;;;;;0.47;0.47;;;;;;;15.37;100.00;101117.22;6222879;28;20141;-76
2021/08/27 13:43:10;;;;;;;0.90;0.80;;;;;;;15.32;100.00;101125.47;6222679;28;20042;-76
2021/08/27 13:46:11;;;;;;;1.05;0.80;;;;;;;15.21;100.00;101136.78;6210841;28;20462;-77
2021/08/27 13:49:13;;;;;;;1.05;0.93;;;;;;;15.30;100.00;101150.34;6218277;28;20053;-76
2021/08/27 13:52:16;;;;;;;1.27;1.08;;;;;;;15.19;100.00;101151.06;6213897;28;20417;-77
2021/08/27 13:55:20;;;;;;;0.93;0.80;;;;;;;15.02;100.00;101152.16;6216513;28;20056;-76
2021/08/27 13:58:21;;;;;;;1.50;0.95;;;;;;;15.09;100.00;101160.56;6222266;28;20053;-76
2021/08/27 14:01:22;;;;;;;0.70;0.70;;;;;;;14.92;100.00;101162.50;6222769;28;20050;-78
2021/08/27 14:04:24;;;;;;;1.13;0.88;;;;;;;14.64;100.00;101167.88;6222320;28;20046;-78
2021/08/27 14:07:26;;;;;;;0.50;0.50;;;;;;;14.41;100.00;101150.78;6242699;22;20049;-80
2021/08/27 14:10:28;;;;;;;0.93;0.45;;;;;;;14.16;100.00;101147.00;6215976;28;20050;-79